sensor_id;sensor_type;location;lat;lon;timestamp;pressure;altitude;pressure_sealevel;temperature;humidity
25722;BME280;13578;53.450;15.496;2023-02-18T00:33:54;99015.91;;;5.42;100.00
25722;BME280;13578;53.450;15.496;2023-02-18T00:36:55;99032.59;;;5.37;100.00
25722;BME280;13578;53.450;15.496;2023-02-18T00:39:56;99039.41;;;5.32;100.00
25722;BME280;13578;53.450;15.496;2023-02-18T00:42:57;99049.81;;;5.27;100.00
25722;BME280;13578;53.450;15.496;2023-02-18T00:45:57;99041.38;;;5.30;100.00
25722;BME280;13578;53.450;15.496;2023-02-18T00:48:58;99018.28;;;5.24;100.00
25722;BME280;13578;53.450;15.496;2023-02-18T00:51:59;99036.06;;;5.28;100.00
25722;BME280;13578;53.450;15.496;2023-02-18T00:54:59;99032.47;;;5.16;100.00
25722;BME280;13578;53.450;15.496;2023-02-18T00:58:00;99038.53;;;5.20;100.00
25722;BME280;13578;53.450;15.496;2023-02-18T01:01:01;99020.47;;;5.07;100.00
25722;BME280;13578;53.450;15.496;2023-02-18T01:04:01;99030.59;;;5.05;100.00
25722;BME280;13578;53.450;15.496;2023-02-18T01:07:02;99044.81;;;5.09;100.00
25722;BME280;13578;53.450;15.496;2023-02-18T01:10:03;99058.19;;;5.12;100.00
25722;BME280;13578;53.450;15.496;2023-02-18T01:13:04;99052.00;;;5.10;100.00
25722;BME280;13578;53.450;15.496;2023-02-18T01:16:05;99045.09;;;5.17;100.00
25722;BME280;13578;53.450;15.496;2023-02-18T01:19:06;99048.56;;;5.19;100.00
25722;BME280;13578;53.450;15.496;2023-02-18T01:22:07;99062.41;;;5.28;100.00
25722;BME280;13578;53.450;15.496;2023-02-18T01:25:08;99060.06;;;5.34;100.00
25722;BME280;13578;53.450;15.496;2023-02-18T01:28:10;99064.91;;;5.42;100.00
25722;BME280;13578;53.450;15.496;2023-02-18T01:31:12;99068.34;;;5.33;100.00
25722;BME280;13578;53.450;15.496;2023-02-18T01:34:13;99086.03;;;5.38;100.00
25722;BME280;13578;53.450;15.496;2023-02-18T01:37:14;99067.50;;;5.32;100.00
25722;BME280;13578;53.450;15.496;2023-02-18T01:40:18;99056.22;;;5.37;100.00
25722;BME280;13578;53.450;15.496;2023-02-18T01:43:20;99072.81;;;5.34;100.00
25722;BME280;13578;53.450;15.496;2023-02-18T01:46:21;99061.91;;;5.34;100.00
25722;BME280;13578;53.450;15.496;2023-02-18T01:49:35;99058.69;;;5.40;100.00
25722;BME280;13578;53.450;15.496;2023-02-18T01:52:37;99068.59;;;5.41;100.00
25722;BME280;13578;53.450;15.496;2023-02-18T01:55:38;99089.63;;;5.39;100.00
25722;BME280;13578;53.450;15.496;2023-02-18T01:58:38;99073.28;;;5.39;100.00
25722;BME280;13578;53.450;15.496;2023-02-18T02:01:41;99062.53;;;5.37;100.00
25722;BME280;13578;53.450;15.496;2023-02-18T02:04:43;99057.22;;;5.36;100.00
25722;BME280;13578;53.450;15.496;2023-02-18T02:07:45;99081.47;;;5.39;100.00
25722;BME280;13578;53.450;15.496;2023-02-18T02:18:34;99091.09;;;5.32;100.00
25722;BME280;13578;53.450;15.496;2023-02-18T02:38:27;99087.38;;;5.10;100.00
25722;BME280;13578;53.450;15.496;2023-02-18T02:41:33;99119.78;;;5.13;100.00
25722;BME280;13578;53.450;15.496;2023-02-18T02:50:54;99105.38;;;5.00;100.00
25722;BME280;13578;53.450;15.496;2023-02-18T02:54:12;99101.81;;;4.99;100.00
25722;BME280;13578;53.450;15.496;2023-02-18T03:00:20;99122.53;;;4.89;100.00
25722;BME280;13578;53.450;15.496;2023-02-18T03:13:32;99122.34;;;4.68;100.00
25722;BME280;13578;53.450;15.496;2023-02-18T03:16:58;99123.53;;;4.64;100.00
25722;BME280;13578;53.450;15.496;2023-02-18T03:20:08;99119.34;;;4.59;100.00
25722;BME280;13578;53.450;15.496;2023-02-18T03:23:14;99117.25;;;4.63;100.00
25722;BME280;13578;53.450;15.496;2023-02-18T03:26:18;99121.09;;;4.60;100.00
25722;BME280;13578;53.450;15.496;2023-02-18T03:29:20;99138.88;;;4.65;100.00
25722;BME280;13578;53.450;15.496;2023-02-18T03:32:22;99140.88;;;4.63;100.00
25722;BME280;13578;53.450;15.496;2023-02-18T03:35:25;99166.81;;;4.67;100.00
25722;BME280;13578;53.450;15.496;2023-02-18T03:38:37;99158.66;;;4.67;100.00
25722;BME280;13578;53.450;15.496;2023-02-18T03:41:38;99161.50;;;4.65;100.00
25722;BME280;13578;53.450;15.496;2023-02-18T03:44:39;99172.88;;;4.70;100.00
25722;BME280;13578;53.450;15.496;2023-02-18T03:47:39;99162.69;;;4.61;100.00
25722;BME280;13578;53.450;15.496;2023-02-18T03:50:40;99164.38;;;4.75;100.00
25722;BME280;13578;53.450;15.496;2023-02-18T03:53:40;99172.41;;;4.76;100.00
25722;BME280;13578;53.450;15.496;2023-02-18T03:56:41;99172.25;;;4.67;100.00
25722;BME280;13578;53.450;15.496;2023-02-18T03:59:42;99155.94;;;4.67;100.00
25722;BME280;13578;53.450;15.496;2023-02-18T04:02:43;99159.63;;;4.66;100.00
25722;BME280;13578;53.450;15.496;2023-02-18T04:05:44;99170.50;;;4.66;100.00
25722;BME280;13578;53.450;15.496;2023-02-18T04:08:44;99171.97;;;4.58;100.00
25722;BME280;13578;53.450;15.496;2023-02-18T04:11:45;99187.28;;;4.59;100.00
25722;BME280;13578;53.450;15.496;2023-02-18T04:14:46;99180.69;;;4.51;100.00
25722;BME280;13578;53.450;15.496;2023-02-18T04:17:46;99162.03;;;4.46;100.00
25722;BME280;13578;53.450;15.496;2023-02-18T04:20:47;99167.84;;;4.53;100.00
25722;BME280;13578;53.450;15.496;2023-02-18T04:23:48;99170.63;;;4.40;100.00
25722;BME280;13578;53.450;15.496;2023-02-18T04:26:48;99165.19;;;4.40;100.00
25722;BME280;13578;53.450;15.496;2023-02-18T04:29:49;99156.94;;;4.41;100.00
25722;BME280;13578;53.450;15.496;2023-02-18T04:32:50;99176.50;;;4.34;100.00
25722;BME280;13578;53.450;15.496;2023-02-18T04:35:50;99189.44;;;4.30;100.00
25722;BME280;13578;53.450;15.496;2023-02-18T04:38:51;99188.88;;;4.38;100.00
25722;BME280;13578;53.450;15.496;2023-02-18T04:41:52;99175.53;;;4.35;100.00
25722;BME280;13578;53.450;15.496;2023-02-18T04:44:52;99171.28;;;4.43;100.00
25722;BME280;13578;53.450;15.496;2023-02-18T04:47:53;99186.94;;;4.40;100.00
25722;BME280;13578;53.450;15.496;2023-02-18T04:50:54;99190.03;;;4.47;100.00
25722;BME280;13578;53.450;15.496;2023-02-18T04:53:55;99189.91;;;4.48;100.00
25722;BME280;13578;53.450;15.496;2023-02-18T04:56:56;99207.13;;;4.49;100.00
25722;BME280;13578;53.450;15.496;2023-02-18T04:59:56;99199.72;;;4.51;100.00
25722;BME280;13578;53.450;15.496;2023-02-18T05:02:57;99195.59;;;4.45;100.00
25722;BME280;13578;53.450;15.496;2023-02-18T05:05:57;99215.38;;;4.47;100.00
25722;BME280;13578;53.450;15.496;2023-02-18T05:08:58;99211.44;;;4.51;100.00
25722;BME280;13578;53.450;15.496;2023-02-18T05:11:59;99215.91;;;4.52;100.00
25722;BME280;13578;53.450;15.496;2023-02-18T05:14:59;99214.38;;;4.48;100.00
25722;BME280;13578;53.450;15.496;2023-02-18T05:18:00;99193.00;;;4.43;100.00
25722;BME280;13578;53.450;15.496;2023-02-18T05:21:01;99213.41;;;4.49;100.00
25722;BME280;13578;53.450;15.496;2023-02-18T05:24:01;99212.13;;;4.42;100.00
25722;BME280;13578;53.450;15.496;2023-02-18T05:27:03;99212.56;;;4.36;100.00
25722;BME280;13578;53.450;15.496;2023-02-18T05:30:04;99205.41;;;4.35;100.00
25722;BME280;13578;53.450;15.496;2023-02-18T05:33:04;99223.00;;;4.42;100.00
25722;BME280;13578;53.450;15.496;2023-02-18T05:36:05;99238.78;;;4.37;100.00
25722;BME280;13578;53.450;15.496;2023-02-18T05:39:06;99237.00;;;4.49;100.00
25722;BME280;13578;53.450;15.496;2023-02-18T05:42:07;99232.97;;;4.54;100.00
25722;BME280;13578;53.450;15.496;2023-02-18T05:45:08;99240.34;;;4.52;100.00
25722;BME280;13578;53.450;15.496;2023-02-18T05:48:09;99242.09;;;4.53;100.00
25722;BME280;13578;53.450;15.496;2023-02-18T05:51:10;99247.41;;;4.55;100.00
25722;BME280;13578;53.450;15.496;2023-02-18T05:54:10;99249.28;;;4.54;100.00
25722;BME280;13578;53.450;15.496;2023-02-18T05:57:13;99251.53;;;4.60;100.00
25722;BME280;13578;53.450;15.496;2023-02-18T06:00:14;99249.91;;;4.58;100.00
25722;BME280;13578;53.450;15.496;2023-02-18T06:03:14;99260.88;;;4.56;100.00
25722;BME280;13578;53.450;15.496;2023-02-18T06:06:15;99252.38;;;4.61;100.00
25722;BME280;13578;53.450;15.496;2023-02-18T06:09:16;99257.72;;;4.63;100.00
25722;BME280;13578;53.450;15.496;2023-02-18T06:12:20;99255.03;;;4.63;100.00
25722;BME280;13578;53.450;15.496;2023-02-18T06:15:20;99248.19;;;4.57;100.00
25722;BME280;13578;53.450;15.496;2023-02-18T06:18:21;99263.59;;;4.56;100.00
25722;BME280;13578;53.450;15.496;2023-02-18T06:21:21;99259.13;;;4.55;100.00
25722;BME280;13578;53.450;15.496;2023-02-18T06:24:22;99268.38;;;4.53;100.00
25722;BME280;13578;53.450;15.496;2023-02-18T06:27:23;99263.59;;;4.56;100.00
25722;BME280;13578;53.450;15.496;2023-02-18T06:30:23;99279.06;;;4.56;100.00
25722;BME280;13578;53.450;15.496;2023-02-18T06:33:24;99269.16;;;4.55;100.00
25722;BME280;13578;53.450;15.496;2023-02-18T06:36:25;99274.72;;;4.53;100.00
25722;BME280;13578;53.450;15.496;2023-02-18T06:39:25;99284.06;;;4.49;100.00
25722;BME280;13578;53.450;15.496;2023-02-18T06:42:26;99266.00;;;4.48;100.00
25722;BME280;13578;53.450;15.496;2023-02-18T06:45:26;99278.63;;;4.49;100.00
25722;BME280;13578;53.450;15.496;2023-02-18T06:48:27;99281.59;;;4.33;100.00
25722;BME280;13578;53.450;15.496;2023-02-18T06:51:28;99275.59;;;4.41;100.00
25722;BME280;13578;53.450;15.496;2023-02-18T06:54:28;99272.22;;;4.37;100.00
25722;BME280;13578;53.450;15.496;2023-02-18T06:57:29;99280.38;;;4.37;100.00
25722;BME280;13578;53.450;15.496;2023-02-18T07:00:30;99282.31;;;4.48;100.00
25722;BME280;13578;53.450;15.496;2023-02-18T07:03:31;99294.84;;;4.51;100.00
25722;BME280;13578;53.450;15.496;2023-02-18T07:06:31;99291.22;;;4.50;100.00
25722;BME280;13578;53.450;15.496;2023-02-18T07:09:32;99290.34;;;4.63;100.00
25722;BME280;13578;53.450;15.496;2023-02-18T07:12:33;99300.97;;;4.66;100.00
25722;BME280;13578;53.450;15.496;2023-02-18T07:15:39;99289.13;;;4.67;100.00
25722;BME280;13578;53.450;15.496;2023-02-18T07:18:40;99288.66;;;4.73;100.00
25722;BME280;13578;53.450;15.496;2023-02-18T07:21:41;99285.63;;;4.77;100.00
25722;BME280;13578;53.450;15.496;2023-02-18T07:24:42;99290.53;;;4.72;100.00
25722;BME280;13578;53.450;15.496;2023-02-18T07:27:42;99285.94;;;4.73;100.00
25722;BME280;13578;53.450;15.496;2023-02-18T07:30:43;99291.06;;;4.77;100.00
25722;BME280;13578;53.450;15.496;2023-02-18T07:33:43;99281.34;;;4.86;100.00
25722;BME280;13578;53.450;15.496;2023-02-18T07:36:44;99270.78;;;4.82;100.00
25722;BME280;13578;53.450;15.496;2023-02-18T07:39:45;99260.56;;;4.85;100.00
25722;BME280;13578;53.450;15.496;2023-02-18T07:42:45;99274.41;;;4.82;100.00
25722;BME280;13578;53.450;15.496;2023-02-18T07:45:46;99268.19;;;4.80;100.00
25722;BME280;13578;53.450;15.496;2023-02-18T07:48:47;99272.44;;;4.84;100.00
25722;BME280;13578;53.450;15.496;2023-02-18T07:51:48;99283.59;;;4.92;100.00
25722;BME280;13578;53.450;15.496;2023-02-18T07:54:49;99284.81;;;4.88;100.00
25722;BME280;13578;53.450;15.496;2023-02-18T07:57:50;99287.75;;;4.85;100.00
25722;BME280;13578;53.450;15.496;2023-02-18T08:00:57;99274.16;;;4.85;100.00
25722;BME280;13578;53.450;15.496;2023-02-18T08:03:57;99275.25;;;4.83;100.00
25722;BME280;13578;53.450;15.496;2023-02-18T08:06:59;99271.16;;;4.77;100.00
25722;BME280;13578;53.450;15.496;2023-02-18T08:10:00;99281.78;;;4.80;100.00
25722;BME280;13578;53.450;15.496;2023-02-18T08:13:00;99276.47;;;4.79;100.00
25722;BME280;13578;53.450;15.496;2023-02-18T08:16:01;99272.03;;;4.77;100.00
25722;BME280;13578;53.450;15.496;2023-02-18T08:19:02;99266.88;;;4.86;100.00
25722;BME280;13578;53.450;15.496;2023-02-18T08:22:03;99274.91;;;4.87;100.00
25722;BME280;13578;53.450;15.496;2023-02-18T08:25:04;99269.34;;;4.89;100.00
25722;BME280;13578;53.450;15.496;2023-02-18T08:28:05;99274.56;;;4.92;100.00
25722;BME280;13578;53.450;15.496;2023-02-18T08:31:06;99272.53;;;5.07;100.00
25722;BME280;13578;53.450;15.496;2023-02-18T08:34:06;99274.81;;;5.13;100.00
25722;BME280;13578;53.450;15.496;2023-02-18T08:37:08;99281.97;;;5.14;100.00
25722;BME280;13578;53.450;15.496;2023-02-18T08:40:10;99289.28;;;5.14;100.00
25722;BME280;13578;53.450;15.496;2023-02-18T08:43:11;99292.16;;;5.23;100.00
25722;BME280;13578;53.450;15.496;2023-02-18T08:46:13;99281.63;;;5.19;100.00
25722;BME280;13578;53.450;15.496;2023-02-18T08:49:13;99276.81;;;5.22;100.00
25722;BME280;13578;53.450;15.496;2023-02-18T08:52:14;99262.78;;;5.29;100.00
25722;BME280;13578;53.450;15.496;2023-02-18T08:55:15;99259.78;;;5.32;100.00
25722;BME280;13578;53.450;15.496;2023-02-18T08:58:15;99267.59;;;5.36;100.00
25722;BME280;13578;53.450;15.496;2023-02-18T09:01:16;99271.31;;;5.35;100.00
25722;BME280;13578;53.450;15.496;2023-02-18T09:04:17;99284.25;;;5.56;100.00
25722;BME280;13578;53.450;15.496;2023-02-18T09:07:20;99286.25;;;5.65;100.00
25722;BME280;13578;53.450;15.496;2023-02-18T09:10:21;99283.19;;;5.70;100.00
25722;BME280;13578;53.450;15.496;2023-02-18T09:13:21;99284.38;;;5.66;100.00
25722;BME280;13578;53.450;15.496;2023-02-18T09:16:22;99271.78;;;5.65;100.00
25722;BME280;13578;53.450;15.496;2023-02-18T09:19:23;99269.41;;;5.60;100.00
25722;BME280;13578;53.450;15.496;2023-02-18T09:22:24;99259.59;;;5.46;100.00
25722;BME280;13578;53.450;15.496;2023-02-18T09:25:24;99259.84;;;5.43;100.00
25722;BME280;13578;53.450;15.496;2023-02-18T09:28:25;99266.31;;;5.53;100.00
25722;BME280;13578;53.450;15.496;2023-02-18T09:31:26;99252.56;;;5.55;100.00
25722;BME280;13578;53.450;15.496;2023-02-18T09:34:28;99241.19;;;5.50;100.00
25722;BME280;13578;53.450;15.496;2023-02-18T09:37:29;99232.88;;;5.51;100.00
25722;BME280;13578;53.450;15.496;2023-02-18T09:40:31;99231.41;;;5.47;100.00
25722;BME280;13578;53.450;15.496;2023-02-18T09:43:40;99242.28;;;5.47;100.00
25722;BME280;13578;53.450;15.496;2023-02-18T09:46:56;99247.38;;;5.63;100.00
25722;BME280;13578;53.450;15.496;2023-02-18T09:50:03;99237.47;;;5.62;100.00
25722;BME280;13578;53.450;15.496;2023-02-18T09:53:05;99240.59;;;5.69;100.00
25722;BME280;13578;53.450;15.496;2023-02-18T09:56:05;99248.16;;;5.77;100.00
25722;BME280;13578;53.450;15.496;2023-02-18T09:59:12;99245.69;;;5.85;100.00
25722;BME280;13578;53.450;15.496;2023-02-18T10:02:14;99240.38;;;5.83;100.00
25722;BME280;13578;53.450;15.496;2023-02-18T10:05:20;99238.78;;;5.81;100.00
25722;BME280;13578;53.450;15.496;2023-02-18T10:08:25;99246.31;;;5.88;100.00
25722;BME280;13578;53.450;15.496;2023-02-18T10:11:31;99249.09;;;6.00;100.00
25722;BME280;13578;53.450;15.496;2023-02-18T10:14:32;99218.03;;;6.02;100.00
25722;BME280;13578;53.450;15.496;2023-02-18T10:17:36;99220.13;;;5.99;100.00
25722;BME280;13578;53.450;15.496;2023-02-18T10:20:37;99202.00;;;5.98;100.00
25722;BME280;13578;53.450;15.496;2023-02-18T10:23:59;99196.72;;;6.08;100.00
25722;BME280;13578;53.450;15.496;2023-02-18T10:27:03;99184.19;;;5.94;100.00
25722;BME280;13578;53.450;15.496;2023-02-18T10:30:39;99183.72;;;6.00;100.00
25722;BME280;13578;53.450;15.496;2023-02-18T10:33:45;99171.94;;;5.99;100.00
25722;BME280;13578;53.450;15.496;2023-02-18T10:36:52;99189.66;;;6.05;100.00
25722;BME280;13578;53.450;15.496;2023-02-18T10:40:59;99200.56;;;6.16;100.00
25722;BME280;13578;53.450;15.496;2023-02-18T10:43:52;99193.63;;;6.24;100.00
25722;BME280;13578;53.450;15.496;2023-02-18T10:47:14;99167.88;;;6.16;100.00
25722;BME280;13578;53.450;15.496;2023-02-18T10:50:43;99158.69;;;6.17;100.00
25722;BME280;13578;53.450;15.496;2023-02-18T10:53:45;99141.06;;;6.33;100.00
25722;BME280;13578;53.450;15.496;2023-02-18T10:56:51;99135.00;;;6.29;100.00
25722;BME280;13578;53.450;15.496;2023-02-18T10:59:58;99130.69;;;6.27;100.00
25722;BME280;13578;53.450;15.496;2023-02-18T11:03:15;99120.06;;;6.12;100.00
25722;BME280;13578;53.450;15.496;2023-02-18T11:09:48;99114.97;;;6.19;100.00
25722;BME280;13578;53.450;15.496;2023-02-18T11:12:55;99100.38;;;6.09;100.00
25722;BME280;13578;53.450;15.496;2023-02-18T11:16:04;99109.44;;;6.09;100.00
25722;BME280;13578;53.450;15.496;2023-02-18T11:19:31;99119.22;;;6.00;100.00
25722;BME280;13578;53.450;15.496;2023-02-18T11:22:34;99120.56;;;5.95;100.00
25722;BME280;13578;53.450;15.496;2023-02-18T11:25:41;99102.59;;;5.92;100.00
25722;BME280;13578;53.450;15.496;2023-02-18T11:29:05;99111.25;;;5.86;100.00
25722;BME280;13578;53.450;15.496;2023-02-18T11:32:10;99103.97;;;5.75;100.00
25722;BME280;13578;53.450;15.496;2023-02-18T11:35:19;99099.75;;;5.60;100.00
25722;BME280;13578;53.450;15.496;2023-02-18T11:38:57;99085.31;;;5.59;100.00
25722;BME280;13578;53.450;15.496;2023-02-18T11:42:02;99096.84;;;5.04;100.00
25722;BME280;13578;53.450;15.496;2023-02-18T11:45:04;99078.78;;;4.81;100.00
25722;BME280;13578;53.450;15.496;2023-02-18T11:48:18;99076.09;;;4.56;100.00
25722;BME280;13578;53.450;15.496;2023-02-18T11:51:29;99076.22;;;4.31;100.00
25722;BME280;13578;53.450;15.496;2023-02-18T11:54:32;99075.13;;;4.09;100.00
25722;BME280;13578;53.450;15.496;2023-02-18T11:57:38;99060.84;;;3.94;100.00
25722;BME280;13578;53.450;15.496;2023-02-18T12:00:41;99060.31;;;3.89;100.00
25722;BME280;13578;53.450;15.496;2023-02-18T12:04:04;99061.28;;;3.88;100.00
25722;BME280;13578;53.450;15.496;2023-02-18T12:07:23;99066.81;;;3.99;100.00
25722;BME280;13578;53.450;15.496;2023-02-18T12:10:28;99067.31;;;4.04;100.00
25722;BME280;13578;53.450;15.496;2023-02-18T12:13:34;99063.50;;;4.07;100.00
25722;BME280;13578;53.450;15.496;2023-02-18T12:24:16;99063.03;;;3.89;100.00
25722;BME280;13578;53.450;15.496;2023-02-18T12:26:57;99053.28;;;3.86;100.00
25722;BME280;13578;53.450;15.496;2023-02-18T12:30:27;99049.03;;;3.82;100.00
25722;BME280;13578;53.450;15.496;2023-02-18T12:40:26;99043.19;;;3.38;100.00
25722;BME280;13578;53.450;15.496;2023-02-18T12:46:58;99043.97;;;3.27;100.00
25722;BME280;13578;53.450;15.496;2023-02-18T12:53:25;99038.22;;;3.19;100.00
25722;BME280;13578;53.450;15.496;2023-02-18T13:11:02;98983.84;;;2.70;100.00
25722;BME280;13578;53.450;15.496;2023-02-18T13:14:23;98975.78;;;2.69;100.00
25722;BME280;13578;53.450;15.496;2023-02-18T13:17:29;98967.44;;;2.59;100.00
25722;BME280;13578;53.450;15.496;2023-02-18T13:20:48;98970.59;;;2.66;100.00
25722;BME280;13578;53.450;15.496;2023-02-18T13:24:13;98962.38;;;2.67;100.00
25722;BME280;13578;53.450;15.496;2023-02-18T13:27:54;98962.03;;;2.59;100.00
25722;BME280;13578;53.450;15.496;2023-02-18T13:31:04;98955.13;;;2.55;100.00
25722;BME280;13578;53.450;15.496;2023-02-18T13:37:37;98955.44;;;2.50;100.00
25722;BME280;13578;53.450;15.496;2023-02-18T13:40:43;98954.78;;;2.47;100.00
25722;BME280;13578;53.450;15.496;2023-02-18T13:43:44;98945.25;;;2.54;100.00
25722;BME280;13578;53.450;15.496;2023-02-18T13:49:48;98936.69;;;2.47;100.00
25722;BME280;13578;53.450;15.496;2023-02-18T13:52:50;98950.66;;;2.54;100.00
25722;BME280;13578;53.450;15.496;2023-02-18T13:59:19;98929.88;;;2.42;100.00
25722;BME280;13578;53.450;15.496;2023-02-18T14:05:24;98941.75;;;2.39;100.00
25722;BME280;13578;53.450;15.496;2023-02-18T14:08:38;98918.81;;;2.45;100.00
25722;BME280;13578;53.450;15.496;2023-02-18T14:11:54;98909.50;;;2.36;100.00
25722;BME280;13578;53.450;15.496;2023-02-18T14:14:57;98917.94;;;2.31;100.00
25722;BME280;13578;53.450;15.496;2023-02-18T14:24:11;98887.19;;;2.32;100.00
25722;BME280;13578;53.450;15.496;2023-02-18T14:27:15;98895.72;;;2.39;100.00
25722;BME280;13578;53.450;15.496;2023-02-18T14:30:25;98886.22;;;2.33;100.00
25722;BME280;13578;53.450;15.496;2023-02-18T14:33:34;98892.16;;;2.38;100.00
25722;BME280;13578;53.450;15.496;2023-02-18T14:36:45;98895.84;;;2.37;100.00
25722;BME280;13578;53.450;15.496;2023-02-18T14:46:59;98907.31;;;2.41;100.00
25722;BME280;13578;53.450;15.496;2023-02-18T14:50:04;98906.91;;;2.34;100.00
25722;BME280;13578;53.450;15.496;2023-02-18T14:53:16;98913.38;;;2.32;100.00
25722;BME280;13578;53.450;15.496;2023-02-18T14:56:20;98899.63;;;2.22;100.00
25722;BME280;13578;53.450;15.496;2023-02-18T14:59:24;98910.25;;;2.25;100.00
25722;BME280;13578;53.450;15.496;2023-02-18T15:02:28;98903.22;;;2.22;100.00
25722;BME280;13578;53.450;15.496;2023-02-18T15:05:31;98890.00;;;2.18;100.00
25722;BME280;13578;53.450;15.496;2023-02-18T15:08:37;98908.19;;;2.29;100.00
25722;BME280;13578;53.450;15.496;2023-02-18T15:11:49;98904.06;;;2.23;100.00
25722;BME280;13578;53.450;15.496;2023-02-18T15:14:52;98896.72;;;2.25;100.00
25722;BME280;13578;53.450;15.496;2023-02-18T15:17:54;98900.19;;;2.27;100.00
25722;BME280;13578;53.450;15.496;2023-02-18T15:20:55;98906.00;;;2.21;100.00
25722;BME280;13578;53.450;15.496;2023-02-18T15:27:27;98907.53;;;2.25;100.00
25722;BME280;13578;53.450;15.496;2023-02-18T15:30:30;98906.13;;;2.32;100.00
25722;BME280;13578;53.450;15.496;2023-02-18T15:33:30;98906.66;;;2.25;100.00
25722;BME280;13578;53.450;15.496;2023-02-18T15:36:31;98898.44;;;2.26;100.00
25722;BME280;13578;53.450;15.496;2023-02-18T15:39:32;98895.63;;;2.15;100.00
25722;BME280;13578;53.450;15.496;2023-02-18T15:42:35;98896.47;;;2.28;100.00
25722;BME280;13578;53.450;15.496;2023-02-18T15:45:41;98893.13;;;2.25;100.00
25722;BME280;13578;53.450;15.496;2023-02-18T15:48:47;98866.41;;;2.20;100.00
25722;BME280;13578;53.450;15.496;2023-02-18T15:51:55;98869.41;;;2.28;100.00
25722;BME280;13578;53.450;15.496;2023-02-18T15:55:03;98885.44;;;2.31;100.00
25722;BME280;13578;53.450;15.496;2023-02-18T15:58:12;98894.53;;;2.30;100.00
25722;BME280;13578;53.450;15.496;2023-02-18T16:01:28;98884.16;;;2.24;100.00
25722;BME280;13578;53.450;15.496;2023-02-18T16:04:31;98896.47;;;2.28;100.00
25722;BME280;13578;53.450;15.496;2023-02-18T16:07:51;98899.53;;;2.36;100.00
25722;BME280;13578;53.450;15.496;2023-02-18T16:11:02;98913.50;;;2.30;100.00
25722;BME280;13578;53.450;15.496;2023-02-18T16:14:05;98935.03;;;2.32;100.00
25722;BME280;13578;53.450;15.496;2023-02-18T16:20:21;98950.44;;;2.44;100.00
25722;BME280;13578;53.450;15.496;2023-02-18T16:23:35;98951.84;;;2.37;100.00
25722;BME280;13578;53.450;15.496;2023-02-18T16:26:41;98949.34;;;2.34;100.00
25722;BME280;13578;53.450;15.496;2023-02-18T16:29:43;98957.91;;;2.41;100.00
25722;BME280;13578;53.450;15.496;2023-02-18T16:32:44;98969.28;;;2.46;100.00
25722;BME280;13578;53.450;15.496;2023-02-18T16:35:45;98968.53;;;2.44;100.00
25722;BME280;13578;53.450;15.496;2023-02-18T16:38:47;98968.63;;;2.42;100.00
25722;BME280;13578;53.450;15.496;2023-02-18T16:41:47;98979.34;;;2.44;100.00
25722;BME280;13578;53.450;15.496;2023-02-18T16:44:48;98972.13;;;2.44;100.00
25722;BME280;13578;53.450;15.496;2023-02-18T16:47:51;98964.72;;;2.46;100.00
25722;BME280;13578;53.450;15.496;2023-02-18T16:50:51;98966.78;;;2.43;100.00
25722;BME280;13578;53.450;15.496;2023-02-18T16:53:52;98976.44;;;2.34;100.00
25722;BME280;13578;53.450;15.496;2023-02-18T16:56:53;98968.00;;;2.38;100.00
25722;BME280;13578;53.450;15.496;2023-02-18T16:59:53;98985.97;;;2.40;100.00
25722;BME280;13578;53.450;15.496;2023-02-18T17:02:55;98997.47;;;2.43;100.00
25722;BME280;13578;53.450;15.496;2023-02-18T17:05:57;99008.06;;;2.46;100.00
25722;BME280;13578;53.450;15.496;2023-02-18T17:08:58;99012.94;;;2.41;100.00
25722;BME280;13578;53.450;15.496;2023-02-18T17:11:59;99009.81;;;2.34;100.00
25722;BME280;13578;53.450;15.496;2023-02-18T17:15:29;99021.94;;;2.42;100.00
25722;BME280;13578;53.450;15.496;2023-02-18T17:18:28;99031.69;;;2.44;100.00
25722;BME280;13578;53.450;15.496;2023-02-18T17:21:30;99041.88;;;2.41;100.00
25722;BME280;13578;53.450;15.496;2023-02-18T17:24:30;99040.13;;;2.40;100.00
25722;BME280;13578;53.450;15.496;2023-02-18T17:27:31;99039.41;;;2.50;100.00
25722;BME280;13578;53.450;15.496;2023-02-18T17:30:35;99030.63;;;2.47;100.00
25722;BME280;13578;53.450;15.496;2023-02-18T17:33:37;99022.91;;;2.41;100.00
25722;BME280;13578;53.450;15.496;2023-02-18T17:36:38;99031.13;;;2.39;100.00
25722;BME280;13578;53.450;15.496;2023-02-18T17:39:44;99045.75;;;2.36;100.00
25722;BME280;13578;53.450;15.496;2023-02-18T17:42:45;99050.09;;;2.39;100.00
25722;BME280;13578;53.450;15.496;2023-02-18T17:45:50;99049.22;;;2.38;100.00
25722;BME280;13578;53.450;15.496;2023-02-18T17:48:50;99050.31;;;2.36;100.00
25722;BME280;13578;53.450;15.496;2023-02-18T17:51:51;99051.41;;;2.33;100.00
25722;BME280;13578;53.450;15.496;2023-02-18T17:54:52;99057.78;;;2.32;100.00
25722;BME280;13578;53.450;15.496;2023-02-18T17:57:52;99073.59;;;2.38;100.00
25722;BME280;13578;53.450;15.496;2023-02-18T18:00:55;99068.72;;;2.31;100.00
25722;BME280;13578;53.450;15.496;2023-02-18T18:03:56;99074.22;;;2.29;100.00
25722;BME280;13578;53.450;15.496;2023-02-18T18:06:57;99072.59;;;2.27;100.00
25722;BME280;13578;53.450;15.496;2023-02-18T18:09:57;99089.31;;;2.33;100.00
25722;BME280;13578;53.450;15.496;2023-02-18T18:13:00;99091.44;;;2.28;100.00
25722;BME280;13578;53.450;15.496;2023-02-18T18:16:01;99094.59;;;2.35;100.00
25722;BME280;13578;53.450;15.496;2023-02-18T18:19:02;99097.72;;;2.29;100.00
25722;BME280;13578;53.450;15.496;2023-02-18T18:22:04;99096.84;;;2.28;100.00
25722;BME280;13578;53.450;15.496;2023-02-18T18:28:34;99114.66;;;2.32;100.00
25722;BME280;13578;53.450;15.496;2023-02-18T18:31:34;99117.47;;;2.31;100.00
25722;BME280;13578;53.450;15.496;2023-02-18T18:34:36;99126.44;;;2.31;100.00